Carcroft, United Kingdom
Current Conditions -  °F | °C
As of 4:20 PM on Wednesday 26 Nov 2014 (Local Time) from EGCN Reporting Station
Moderate Rain Moderate Rain  
Wind Chill: 44°   Ceiling: 1600
Heat Index: 46°   Visibility: 2.3mi
Dew Point: 45°   Wind: 6mph
Humidity: 93%   Direction: 30°NNE
Pressure: 29.85"   Gusts: NA
Location:  53.58°N, 1.18°W
Report Text: EGCN 261620Z 03005KT 3700 RA FEW010 BKN016 OVC021 08/07 Q1011
Loading
Personal Weather Stations






























Interactive Weather Map New forecast layout! Learn more

10-Day Weather Forecast

Advertisements
Track Severe Weather on mobile